createdAt,value
2017-06-06T00:00:25.071Z,99.90
2017-06-06T00:02:52.715Z,99.90
2017-06-06T00:05:20.395Z,99.90
2017-06-06T00:07:48.805Z,99.90
2017-06-06T00:10:16.724Z,99.90
2017-06-06T00:12:44.377Z,99.90
2017-06-06T00:15:12.033Z,99.20
2017-06-06T00:17:39.721Z,99.90
2017-06-06T00:20:07.370Z,99.60
2017-06-06T00:22:35.317Z,99.70
2017-06-06T00:25:02.969Z,98.50
2017-06-06T00:27:30.626Z,99.30
2017-06-06T00:29:58.309Z,99.30
2017-06-06T00:32:25.953Z,99.60
2017-06-06T00:34:53.941Z,99.10
2017-06-06T00:37:21.581Z,99.30
2017-06-06T00:39:49.217Z,99.80
2017-06-06T00:42:16.905Z,99.90
2017-06-06T00:44:44.552Z,99.90
2017-06-06T00:47:12.603Z,99.90
2017-06-06T00:49:40.256Z,99.90
2017-06-06T00:52:07.917Z,99.90
2017-06-06T00:54:35.596Z,99.90
2017-06-06T00:57:03.258Z,99.90
2017-06-06T00:59:31.192Z,99.90
2017-06-06T01:01:58.842Z,99.90
2017-06-06T01:04:26.492Z,99.90
2017-06-06T01:06:54.180Z,99.90
2017-06-06T01:09:21.844Z,99.90
2017-06-06T01:11:49.772Z,99.90
2017-06-06T01:14:17.429Z,99.90
2017-06-06T01:16:45.074Z,99.90
2017-06-06T01:19:12.764Z,99.90
2017-06-06T01:21:41.419Z,99.90
2017-06-06T01:24:09.325Z,99.90
2017-06-06T01:26:36.968Z,99.90
2017-06-06T01:29:04.629Z,99.90
2017-06-06T01:31:46.015Z,99.90
2017-06-06T01:34:13.677Z,99.90
2017-06-06T01:36:42.145Z,99.90
2017-06-06T01:39:09.804Z,99.90
2017-06-06T01:41:37.451Z,99.90
2017-06-06T01:44:05.905Z,99.90
2017-06-06T01:46:34.322Z,99.90
2017-06-06T01:49:02.009Z,99.90
2017-06-06T01:51:29.661Z,99.90
2017-06-06T01:53:57.315Z,99.90
2017-06-06T01:56:24.982Z,99.90
2017-06-06T01:58:52.634Z,99.90
2017-06-06T02:01:20.328Z,99.90
2017-06-06T02:03:47.972Z,99.90
2017-06-06T02:06:15.633Z,99.90
2017-06-06T02:08:43.325Z,99.90
2017-06-06T02:11:10.985Z,99.90
2017-06-06T02:13:38.943Z,99.90
2017-06-06T02:16:06.584Z,99.90
2017-06-06T02:18:34.251Z,99.70
2017-06-06T02:21:01.925Z,99.70
2017-06-06T02:23:29.572Z,99.90
2017-06-06T02:25:57.504Z,99.90
2017-06-06T02:28:25.152Z,99.90
2017-06-06T02:30:52.821Z,99.90
2017-06-06T02:33:20.505Z,99.90
2017-06-06T02:35:48.153Z,99.90
2017-06-06T02:38:16.142Z,99.90
2017-06-06T02:40:43.807Z,99.90
2017-06-06T02:43:11.461Z,99.90
2017-06-06T02:45:39.129Z,99.10
2017-06-06T02:48:07.548Z,99.60
2017-06-06T02:50:35.619Z,99.50
2017-06-06T02:53:03.286Z,99.90
2017-06-06T02:55:31.712Z,99.90
2017-06-06T02:57:59.382Z,99.90
2017-06-06T03:00:27.036Z,99.90
2017-06-06T03:02:55.073Z,98.10
2017-06-06T03:05:23.261Z,99.90
2017-06-06T03:07:50.911Z,96.60
2017-06-06T03:10:19.358Z,93.90
2017-06-06T03:12:47.091Z,93.80
2017-06-06T03:15:15.857Z,94.50
2017-06-06T03:17:43.510Z,94.40
2017-06-06T03:20:11.177Z,93.20
2017-06-06T03:22:38.853Z,91.00
2017-06-06T03:25:06.497Z,89.90
2017-06-06T03:27:34.572Z,89.10
2017-06-06T03:30:02.206Z,89.50
2017-06-06T03:32:29.851Z,85.40
2017-06-06T03:34:57.528Z,84.10
2017-06-06T03:37:25.164Z,84.60
2017-06-06T03:39:53.131Z,84.80
2017-06-06T03:42:20.769Z,84.80
2017-06-06T03:44:48.417Z,82.70
2017-06-06T03:47:16.089Z,81.30
2017-06-06T03:49:43.742Z,80.00
2017-06-06T03:52:11.690Z,81.10
2017-06-06T03:54:39.361Z,79.30
2017-06-06T03:57:06.993Z,81.20
2017-06-06T03:59:34.656Z,79.80
2017-06-06T04:02:02.313Z,81.80
2017-06-06T04:04:31.000Z,80.90
2017-06-06T04:06:58.635Z,80.90
2017-06-06T04:09:27.041Z,81.80
2017-06-06T04:11:54.755Z,81.60
2017-06-06T04:14:22.398Z,83.50
2017-06-06T04:16:50.405Z,82.00
2017-06-06T04:19:18.037Z,83.80
2017-06-06T04:21:45.674Z,83.50
2017-06-06T04:24:13.357Z,82.00
2017-06-06T04:26:41.000Z,84.60
2017-06-06T04:29:08.936Z,80.80
2017-06-06T04:31:36.569Z,80.20
2017-06-06T04:34:04.206Z,84.90
2017-06-06T04:36:31.871Z,79.30
2017-06-06T04:38:59.505Z,79.50
2017-06-06T04:41:27.471Z,78.10
2017-06-06T04:43:55.120Z,83.30
2017-06-06T04:46:22.756Z,76.40
2017-06-06T04:48:50.484Z,77.70
2017-06-06T04:51:18.124Z,77.70
2017-06-06T04:53:46.116Z,76.90
2017-06-06T04:56:13.780Z,77.10
2017-06-06T04:58:41.417Z,77.10
2017-06-06T05:01:09.101Z,78.00
2017-06-06T05:03:37.510Z,77.60
2017-06-06T05:06:05.474Z,77.70
2017-06-06T05:08:33.124Z,78.00
2017-06-06T05:11:00.769Z,77.10
2017-06-06T05:13:28.481Z,77.00
2017-06-06T05:15:56.124Z,77.30
2017-06-06T05:18:24.064Z,77.20
2017-06-06T05:20:52.466Z,76.40
2017-06-06T05:23:20.100Z,76.30
2017-06-06T05:25:47.760Z,74.00
2017-06-06T05:28:15.393Z,74.20
2017-06-06T05:30:43.304Z,73.50
2017-06-06T05:33:10.949Z,73.10
2017-06-06T05:35:38.634Z,72.10
2017-06-06T05:38:06.349Z,70.10
2017-06-06T05:40:33.984Z,70.50
2017-06-06T05:43:01.911Z,70.00
2017-06-06T05:45:29.554Z,66.10
2017-06-06T05:47:57.191Z,65.30
2017-06-06T05:50:24.861Z,65.00
2017-06-06T05:52:52.509Z,64.80
2017-06-06T05:55:20.440Z,63.50
2017-06-06T05:57:48.068Z,63.70
2017-06-06T06:00:15.709Z,62.40
2017-06-06T06:02:43.392Z,58.60
2017-06-06T06:05:11.060Z,57.90
2017-06-06T06:07:39.011Z,58.10
2017-06-06T06:10:06.645Z,56.40
2017-06-06T06:12:34.265Z,52.70
2017-06-06T06:15:01.936Z,44.90
2017-06-06T06:17:29.567Z,45.40
2017-06-06T06:19:57.522Z,47.00
2017-06-06T06:22:25.132Z,48.10
2017-06-06T06:24:52.757Z,49.20
2017-06-06T06:27:20.397Z,49.40
2017-06-06T06:29:48.008Z,44.40
2017-06-06T06:32:15.965Z,43.30
2017-06-06T06:34:43.591Z,44.50
2017-06-06T06:37:11.966Z,41.40
2017-06-06T06:39:39.609Z,41.10
2017-06-06T06:42:07.988Z,40.30
2017-06-06T06:44:35.905Z,40.20
2017-06-06T06:47:04.288Z,39.10
2017-06-06T06:49:31.912Z,38.40
2017-06-06T06:51:59.553Z,37.70
2017-06-06T06:54:27.158Z,36.50
2017-06-06T06:56:55.097Z,35.00
2017-06-06T06:59:22.700Z,32.20
2017-06-06T07:01:50.317Z,33.80
2017-06-06T07:04:17.948Z,31.20
2017-06-06T07:06:45.558Z,32.40
2017-06-06T07:09:14.264Z,30.10
2017-06-06T07:11:41.866Z,30.00
2017-06-06T07:14:10.244Z,31.20
2017-06-06T07:16:37.884Z,30.50
2017-06-06T07:19:06.272Z,30.80
2017-06-06T07:21:34.224Z,30.80
2017-06-06T07:24:01.840Z,32.20
2017-06-06T07:26:30.216Z,37.80
2017-06-06T07:28:57.860Z,37.70
2017-06-06T07:31:26.248Z,40.50
2017-06-06T07:33:54.136Z,40.30
2017-06-06T07:36:21.748Z,38.90
2017-06-06T07:38:49.355Z,36.00
2017-06-06T07:41:17.756Z,31.60
2017-06-06T07:43:45.370Z,31.60
2017-06-06T07:46:14.060Z,30.30
2017-06-06T07:48:41.677Z,30.20
2017-06-06T07:51:09.282Z,29.70
2017-06-06T07:53:36.933Z,29.90
2017-06-06T07:56:04.537Z,29.00
2017-06-06T07:58:32.505Z,27.80
2017-06-06T08:01:00.112Z,27.50
2017-06-06T08:03:27.719Z,28.20
2017-06-06T08:05:55.353Z,27.40
2017-06-06T08:08:22.965Z,27.60
2017-06-06T08:10:51.618Z,29.30
2017-06-06T08:13:19.224Z,29.30
2017-06-06T08:15:46.834Z,27.60
2017-06-06T08:18:14.478Z,28.30
2017-06-06T08:20:42.848Z,26.90
2017-06-06T08:23:10.804Z,26.90
2017-06-06T08:25:38.502Z,26.50
2017-06-06T08:28:06.145Z,26.60
2017-06-06T08:30:33.790Z,26.30
2017-06-06T08:33:01.400Z,26.70
2017-06-06T08:35:29.388Z,27.40
2017-06-06T08:37:56.996Z,27.00
2017-06-06T08:40:24.608Z,24.80
2017-06-06T08:42:52.252Z,25.80
2017-06-06T08:45:19.860Z,26.70
2017-06-06T08:47:47.785Z,27.00
2017-06-06T08:50:15.413Z,26.60
2017-06-06T08:52:43.789Z,26.20
2017-06-06T08:55:11.425Z,25.60
2017-06-06T08:57:39.797Z,27.50
2017-06-06T09:00:07.865Z,27.50
2017-06-06T09:02:35.500Z,27.50
2017-06-06T09:05:03.112Z,25.20
2017-06-06T09:07:30.756Z,26.70
2017-06-06T09:09:58.359Z,24.80
2017-06-06T09:12:26.283Z,23.70
2017-06-06T09:14:53.892Z,24.50
2017-06-06T09:17:21.505Z,24.50
2017-06-06T09:19:50.041Z,24.10
2017-06-06T09:22:18.416Z,24.80
2017-06-06T09:24:46.329Z,24.70
2017-06-06T09:27:13.934Z,25.30
2017-06-06T09:29:42.308Z,26.30
2017-06-06T09:32:09.948Z,26.20
2017-06-06T09:34:37.558Z,25.60
2017-06-06T09:37:05.488Z,27.10
2017-06-06T09:39:33.094Z,27.80
2017-06-06T09:42:00.706Z,23.80
2017-06-06T09:44:28.352Z,25.90
2017-06-06T09:46:56.734Z,25.70
2017-06-06T09:49:24.684Z,25.60
2017-06-06T09:51:52.293Z,26.30
2017-06-06T09:54:19.913Z,26.30
2017-06-06T09:56:47.550Z,26.10
2017-06-06T09:59:15.153Z,27.00
2017-06-06T10:01:43.840Z,24.00
2017-06-06T10:04:11.469Z,23.90
2017-06-06T10:06:39.841Z,22.50
2017-06-06T10:09:07.484Z,22.40
2017-06-06T10:11:35.092Z,22.90
2017-06-06T10:14:03.110Z,23.00
2017-06-06T10:16:30.720Z,22.10
2017-06-06T10:18:59.097Z,23.00
2017-06-06T10:21:26.740Z,22.90
2017-06-06T10:23:54.360Z,25.50
2017-06-06T10:26:22.350Z,26.10
2017-06-06T10:28:49.966Z,26.80
2017-06-06T10:31:18.349Z,27.90
2017-06-06T10:33:46.752Z,29.90
2017-06-06T10:36:14.365Z,29.80
2017-06-06T10:38:42.276Z,28.60
2017-06-06T10:41:09.892Z,27.30
2017-06-06T10:43:37.496Z,26.20
2017-06-06T10:46:05.898Z,26.70
2017-06-06T10:48:33.504Z,26.20
2017-06-06T10:51:02.194Z,23.60
2017-06-06T10:53:29.809Z,23.50
2017-06-06T10:55:57.421Z,25.70
2017-06-06T10:58:25.064Z,25.80
2017-06-06T11:00:52.673Z,27.00
2017-06-06T11:03:20.565Z,23.30
2017-06-06T11:05:48.173Z,23.60
2017-06-06T11:08:15.783Z,25.00
2017-06-06T11:10:43.420Z,24.40
2017-06-06T11:13:11.029Z,24.40
2017-06-06T11:15:38.917Z,24.90
2017-06-06T11:18:06.525Z,24.20
2017-06-06T11:20:34.136Z,25.30
2017-06-06T11:23:02.538Z,26.00
2017-06-06T11:25:30.149Z,26.00
2017-06-06T11:27:58.840Z,27.40
2017-06-06T11:30:26.480Z,27.40
2017-06-06T11:32:54.097Z,27.60
2017-06-06T11:35:21.740Z,28.90
2017-06-06T11:37:49.360Z,26.70
2017-06-06T11:40:17.277Z,26.90
2017-06-06T11:42:44.889Z,27.20
2017-06-06T11:45:12.511Z,29.30
2017-06-06T11:47:40.151Z,30.10
2017-06-06T11:50:07.764Z,29.30
2017-06-06T11:52:35.726Z,29.20
2017-06-06T11:55:03.348Z,30.10
2017-06-06T11:57:30.976Z,30.30
2017-06-06T11:59:59.396Z,31.30
2017-06-06T12:02:27.076Z,31.20
2017-06-06T12:04:55.091Z,32.30
2017-06-06T12:07:22.724Z,31.60
2017-06-06T12:09:50.348Z,31.30
2017-06-06T12:12:18.790Z,31.40
2017-06-06T12:14:46.401Z,31.40
2017-06-06T12:17:14.324Z,29.80
2017-06-06T12:19:41.936Z,29.70
2017-06-06T12:22:09.551Z,30.10
2017-06-06T12:24:37.201Z,30.40
2017-06-06T12:27:04.838Z,30.00
2017-06-06T12:29:32.769Z,31.30
2017-06-06T12:32:00.390Z,30.70
2017-06-06T12:34:28.769Z,31.90
2017-06-06T12:36:56.425Z,31.80
2017-06-06T12:39:24.045Z,32.00
2017-06-06T12:41:52.740Z,34.00
2017-06-06T12:44:20.361Z,34.00
2017-06-06T12:46:48.757Z,32.80
2017-06-06T12:49:16.420Z,32.70
2017-06-06T12:51:44.033Z,33.30
2017-06-06T12:54:12.001Z,34.20
2017-06-06T12:56:39.608Z,35.40
2017-06-06T12:59:07.225Z,37.70
2017-06-06T13:01:34.872Z,36.00
2017-06-06T13:04:02.487Z,35.70
2017-06-06T13:06:30.436Z,36.40
2017-06-06T13:08:58.049Z,38.20
2017-06-06T13:11:25.681Z,41.30
2017-06-06T13:13:53.329Z,39.30
2017-06-06T13:16:21.545Z,40.70
2017-06-06T13:18:49.438Z,38.50
2017-06-06T13:21:17.074Z,39.30
2017-06-06T13:23:44.680Z,40.60
2017-06-06T13:26:12.320Z,41.10
2017-06-06T13:28:39.924Z,40.60
2017-06-06T13:31:07.936Z,40.50
2017-06-06T13:33:35.548Z,41.20
2017-06-06T13:36:03.920Z,39.90
2017-06-06T13:38:31.596Z,39.90
2017-06-06T13:40:59.220Z,38.50
2017-06-06T13:43:27.181Z,40.20
2017-06-06T13:45:54.798Z,42.30
2017-06-06T13:48:23.180Z,44.70
2017-06-06T13:50:50.840Z,44.60
2017-06-06T13:53:18.452Z,46.10
2017-06-06T13:55:47.197Z,46.10
2017-06-06T13:58:14.804Z,46.10
2017-06-06T14:00:42.423Z,46.50
2017-06-06T14:03:10.821Z,46.00
2017-06-06T14:05:38.429Z,46.00
2017-06-06T14:08:07.136Z,48.90
2017-06-06T14:10:34.748Z,48.80
2017-06-06T14:13:03.124Z,43.40
2017-06-06T14:15:30.769Z,43.30
2017-06-06T14:17:59.154Z,44.70
2017-06-06T14:20:27.100Z,44.70
2017-06-06T14:22:54.708Z,46.40
2017-06-06T14:25:22.321Z,46.30
2017-06-06T14:27:49.965Z,46.80
2017-06-06T14:30:17.573Z,47.40
2017-06-06T14:32:45.532Z,46.30
2017-06-06T14:35:13.160Z,46.50
2017-06-06T14:37:40.776Z,49.00
2017-06-06T14:40:08.429Z,51.30
2017-06-06T14:42:36.056Z,55.90
2017-06-06T14:45:03.964Z,51.90
2017-06-06T14:47:32.344Z,50.90
2017-06-06T14:49:59.956Z,50.80
2017-06-06T14:52:28.364Z,51.60
2017-06-06T14:54:55.985Z,51.50
2017-06-06T14:57:23.956Z,56.50
2017-06-06T14:59:51.576Z,53.80
2017-06-06T15:02:19.961Z,50.60
2017-06-06T15:04:49.089Z,50.60
2017-06-06T15:07:16.713Z,55.80
2017-06-06T15:09:44.617Z,54.10
2017-06-06T15:12:12.263Z,55.90
2017-06-06T15:14:40.703Z,52.60
2017-06-06T15:17:08.356Z,52.20
2017-06-06T15:19:36.004Z,56.70
2017-06-06T15:22:04.001Z,58.80
2017-06-06T15:24:31.617Z,57.80
2017-06-06T15:26:59.994Z,56.30
2017-06-06T15:29:27.647Z,56.20
2017-06-06T15:31:55.260Z,60.20
2017-06-06T15:34:23.312Z,61.80
2017-06-06T15:36:50.928Z,61.10
2017-06-06T15:39:18.544Z,54.00
2017-06-06T15:41:46.222Z,54.10
2017-06-06T15:44:13.833Z,56.10
2017-06-06T15:46:41.749Z,54.40
2017-06-06T15:49:09.365Z,56.90
2017-06-06T15:51:37.040Z,57.30
2017-06-06T15:54:04.686Z,58.90
2017-06-06T15:56:32.305Z,51.90
2017-06-06T15:59:00.276Z,54.30
2017-06-06T16:01:27.914Z,53.30
2017-06-06T16:03:55.530Z,50.00
2017-06-06T16:06:23.273Z,49.40
2017-06-06T16:08:50.897Z,52.30
2017-06-06T16:11:19.625Z,49.30
2017-06-06T16:13:47.334Z,49.30
2017-06-06T16:16:14.960Z,49.40
2017-06-06T16:18:43.386Z,50.90
2017-06-06T16:21:10.996Z,50.70
2017-06-06T16:23:38.974Z,52.00
2017-06-06T16:26:06.597Z,51.50
2017-06-06T16:28:34.225Z,50.50
2017-06-06T16:31:02.633Z,51.90
2017-06-06T16:33:30.269Z,51.70
2017-06-06T16:35:58.201Z,50.20
2017-06-06T16:38:25.831Z,49.70
2017-06-06T16:40:54.232Z,50.70
2017-06-06T16:43:22.248Z,49.90
2017-06-06T16:45:50.629Z,51.90
2017-06-06T16:48:18.548Z,51.70
2017-06-06T16:50:46.163Z,49.30
2017-06-06T16:53:13.800Z,48.30
2017-06-06T16:55:41.453Z,44.80
2017-06-06T16:58:09.096Z,45.90
2017-06-06T17:00:37.126Z,46.80
2017-06-06T17:03:04.780Z,50.00
2017-06-06T17:06:11.732Z,50.00
2017-06-06T17:08:39.376Z,53.20
2017-06-06T17:11:06.996Z,57.70
2017-06-06T17:13:34.671Z,56.60
2017-06-06T17:16:02.304Z,59.70
2017-06-06T17:18:30.292Z,70.90
2017-06-06T17:20:57.957Z,72.30
2017-06-06T17:23:25.696Z,71.80
2017-06-06T17:25:53.612Z,76.30
2017-06-06T17:28:21.471Z,76.50
2017-06-06T17:30:49.939Z,74.50
2017-06-06T17:33:17.615Z,76.50
2017-06-06T17:35:45.319Z,73.90
2017-06-06T17:38:12.996Z,72.20
2017-06-06T17:40:40.652Z,72.60
2017-06-06T17:43:09.400Z,76.50
2017-06-06T17:45:37.030Z,73.00
2017-06-06T17:48:04.664Z,70.20
2017-06-06T17:50:32.328Z,71.80
2017-06-06T17:52:59.964Z,66.50
2017-06-06T17:55:27.949Z,57.90
2017-06-06T17:57:55.620Z,62.40
2017-06-06T18:00:23.284Z,62.80
2017-06-06T18:02:50.941Z,59.30
2017-06-06T18:05:18.575Z,56.30
2017-06-06T18:07:46.586Z,56.60
2017-06-06T18:10:14.260Z,56.00
2017-06-06T18:12:41.926Z,55.20
2017-06-06T18:15:09.595Z,59.10
2017-06-06T18:17:37.233Z,61.40
2017-06-06T18:20:05.159Z,56.00
2017-06-06T18:22:32.787Z,57.00
2017-06-06T18:25:00.416Z,59.70
2017-06-06T18:27:28.077Z,56.20
2017-06-06T18:29:55.708Z,55.20
2017-06-06T18:32:23.619Z,58.20
2017-06-06T18:34:51.251Z,57.70
2017-06-06T18:37:18.952Z,55.70
2017-06-06T18:39:46.616Z,60.30
2017-06-06T18:42:14.276Z,58.80
2017-06-06T18:44:42.212Z,51.50
2017-06-06T18:47:09.925Z,54.40
2017-06-06T18:49:37.576Z,53.70
2017-06-06T18:52:05.250Z,53.10
2017-06-06T18:54:32.924Z,57.80
2017-06-06T18:57:00.842Z,65.50
2017-06-06T18:59:28.481Z,64.40
2017-06-06T19:01:56.112Z,59.70
2017-06-06T19:04:24.250Z,65.50
2017-06-06T19:06:52.808Z,69.10
2017-06-06T19:09:20.821Z,68.90
2017-06-06T19:11:48.453Z,68.60
2017-06-06T19:14:16.104Z,66.50
2017-06-06T19:16:43.791Z,71.10
2017-06-06T19:19:11.426Z,69.30
2017-06-06T19:21:39.389Z,70.80
2017-06-06T19:24:07.038Z,76.60
2017-06-06T19:26:34.681Z,81.20
2017-06-06T19:29:02.397Z,87.20
2017-06-06T19:31:30.162Z,88.20
2017-06-06T19:33:58.276Z,89.80
2017-06-06T19:36:25.920Z,91.40
2017-06-06T19:38:53.573Z,91.90
2017-06-06T19:41:21.237Z,91.90
2017-06-06T19:43:48.894Z,93.40
2017-06-06T19:46:16.863Z,92.70
2017-06-06T19:48:44.493Z,93.90
2017-06-06T19:51:12.275Z,91.90
2017-06-06T19:53:39.971Z,90.00
2017-06-06T19:56:07.618Z,89.30
2017-06-06T19:58:35.573Z,92.00
2017-06-06T20:01:03.200Z,89.70
2017-06-06T20:03:30.864Z,91.30
2017-06-06T20:05:58.549Z,91.60
2017-06-06T20:08:26.181Z,90.50
2017-06-06T20:10:54.141Z,93.00
2017-06-06T20:13:22.154Z,90.40
2017-06-06T20:15:50.643Z,88.70
2017-06-06T20:18:18.366Z,88.60
2017-06-06T20:20:46.117Z,89.70
2017-06-06T20:23:14.841Z,87.10
2017-06-06T20:25:42.471Z,87.10
2017-06-06T20:28:10.128Z,90.70
2017-06-06T20:30:37.803Z,87.40
2017-06-06T20:33:05.448Z,90.50
2017-06-06T20:35:33.569Z,86.50
2017-06-06T20:38:01.333Z,87.10
2017-06-06T20:40:28.989Z,86.90
2017-06-06T20:42:56.690Z,88.00
2017-06-06T20:45:24.349Z,90.00
2017-06-06T20:47:52.327Z,88.70
2017-06-06T20:50:19.970Z,90.40
2017-06-06T20:52:47.684Z,89.10
2017-06-06T20:55:15.405Z,87.00
2017-06-06T20:57:43.164Z,87.10
2017-06-06T21:00:11.145Z,86.60
2017-06-06T21:02:38.795Z,86.10
2017-06-06T21:05:06.429Z,87.20
2017-06-06T21:07:34.104Z,86.00
2017-06-06T21:10:01.757Z,84.80
2017-06-06T21:12:29.720Z,85.20
2017-06-06T21:14:57.375Z,86.10
2017-06-06T21:17:25.042Z,85.70
2017-06-06T21:19:52.759Z,85.60
2017-06-06T21:22:20.524Z,85.30
2017-06-06T21:24:48.444Z,84.50
2017-06-06T21:27:16.089Z,83.40
2017-06-06T21:29:44.113Z,83.70
2017-06-06T21:32:11.965Z,86.30
2017-06-06T21:34:39.721Z,84.50
2017-06-06T21:37:07.713Z,84.80
2017-06-06T21:39:35.379Z,81.10
2017-06-06T21:42:03.026Z,82.60
2017-06-06T21:44:31.578Z,80.60
2017-06-06T21:46:59.612Z,79.70
2017-06-06T21:49:27.637Z,81.20
2017-06-06T21:51:55.284Z,80.50
2017-06-06T21:54:22.917Z,80.60
2017-06-06T21:56:50.594Z,78.20
2017-06-06T21:59:18.228Z,76.20
2017-06-06T22:01:46.184Z,76.20
2017-06-06T22:04:13.811Z,74.80
2017-06-06T22:06:41.459Z,73.80
2017-06-06T22:09:09.885Z,78.40
2017-06-06T22:11:37.530Z,78.10
2017-06-06T22:14:05.481Z,74.90
2017-06-06T22:16:33.136Z,74.60
2017-06-06T22:19:00.781Z,74.10
2017-06-06T22:21:28.469Z,73.30
2017-06-06T22:23:56.122Z,71.80
2017-06-06T22:26:24.125Z,72.60
2017-06-06T22:28:51.769Z,71.70
2017-06-06T22:31:19.421Z,69.70
2017-06-06T22:33:47.100Z,68.90
2017-06-06T22:36:14.740Z,68.10
2017-06-06T22:38:42.877Z,69.00
2017-06-06T22:41:10.520Z,69.60
2017-06-06T22:43:38.168Z,71.00
2017-06-06T22:46:05.830Z,69.30
2017-06-06T22:48:33.480Z,67.60
2017-06-06T22:51:01.523Z,68.50
2017-06-06T22:53:29.160Z,68.00
2017-06-06T22:55:56.793Z,69.40
2017-06-06T22:58:24.478Z,71.90
2017-06-06T23:00:52.438Z,66.90
2017-06-06T23:03:20.377Z,66.50
2017-06-06T23:05:48.032Z,66.40
2017-06-06T23:08:15.676Z,69.60
2017-06-06T23:10:43.353Z,67.30
2017-06-06T23:13:10.988Z,64.30
2017-06-06T23:15:39.705Z,64.80
2017-06-06T23:18:07.334Z,64.80
2017-06-06T23:20:34.973Z,64.40
2017-06-06T23:23:02.641Z,64.40
2017-06-06T23:25:30.281Z,64.10
2017-06-06T23:27:58.258Z,65.10
2017-06-06T23:30:25.890Z,66.50
2017-06-06T23:32:53.530Z,61.40
2017-06-06T23:35:21.196Z,60.10
2017-06-06T23:37:48.834Z,59.20
2017-06-06T23:40:16.739Z,57.90
2017-06-06T23:42:44.368Z,58.00
2017-06-06T23:45:12.021Z,61.40
2017-06-06T23:47:39.683Z,58.60
2017-06-06T23:50:08.088Z,58.60
2017-06-06T23:52:36.030Z,58.70
2017-06-06T23:55:03.668Z,54.60
2017-06-06T23:57:31.304Z,54.80
2017-06-06T23:59:58.969Z,56.50
